createdAt,value
2023-05-22T00:02:12.067Z,15.42
2023-05-22T00:04:40.334Z,15.48
2023-05-22T00:07:08.552Z,15.62
2023-05-22T00:09:36.726Z,15.66
2023-05-22T00:12:05.144Z,15.72
2023-05-22T00:14:33.171Z,15.69
2023-05-22T00:17:01.346Z,15.71
2023-05-22T00:19:31.090Z,15.70
2023-05-22T00:21:59.493Z,15.65
2023-05-22T00:24:27.574Z,15.54
2023-05-22T00:26:55.869Z,15.50
2023-05-22T00:29:23.944Z,15.48
2023-05-22T00:31:52.124Z,15.48
2023-05-22T00:34:20.639Z,15.55
2023-05-22T00:36:50.076Z,15.53
2023-05-22T00:39:18.298Z,15.50
2023-05-22T00:41:46.493Z,15.52
2023-05-22T00:44:14.758Z,15.62
2023-05-22T00:46:43.289Z,15.57
2023-05-22T00:49:11.460Z,15.50
2023-05-22T00:51:39.713Z,15.48
2023-05-22T00:54:10.572Z,15.51
2023-05-22T00:56:38.841Z,15.48
2023-05-22T00:59:07.002Z,15.42
2023-05-22T01:01:37.849Z,15.40
2023-05-22T01:04:08.305Z,15.43
2023-05-22T01:06:36.479Z,15.46
2023-05-22T01:09:05.162Z,15.49
2023-05-22T01:11:44.370Z,15.51
2023-05-22T01:14:22.307Z,15.53
2023-05-22T01:16:59.846Z,15.53
2023-05-22T01:20:01.452Z,15.48
2023-05-22T01:22:47.675Z,15.57
2023-05-22T01:25:33.795Z,15.58
2023-05-22T01:28:21.706Z,15.49
2023-05-22T01:31:01.231Z,15.48
2023-05-22T01:33:37.405Z,15.45
2023-05-22T01:36:10.805Z,15.38
2023-05-22T01:38:39.485Z,15.40
2023-05-22T01:41:07.737Z,15.49
2023-05-22T01:43:36.444Z,15.45
2023-05-22T01:46:06.545Z,15.37
2023-05-22T01:48:34.836Z,15.32
2023-05-22T01:51:08.925Z,15.26
2023-05-22T01:53:45.277Z,15.23
2023-05-22T01:56:18.019Z,15.20
2023-05-22T01:58:52.655Z,15.18
2023-05-22T02:01:27.659Z,15.14
2023-05-22T02:03:58.260Z,15.17
2023-05-22T02:06:30.022Z,15.17
2023-05-22T02:08:58.834Z,15.16
2023-05-22T02:11:29.466Z,15.17
2023-05-22T02:13:58.687Z,15.15
2023-05-22T02:16:28.919Z,15.18
2023-05-22T02:19:06.078Z,15.23
2023-05-22T02:21:35.462Z,15.22
2023-05-22T02:24:04.944Z,15.15
2023-05-22T02:26:33.288Z,15.16
2023-05-22T02:29:01.426Z,15.17
2023-05-22T02:31:31.290Z,15.08
2023-05-22T02:33:59.468Z,15.06
2023-05-22T02:36:27.557Z,15.09
2023-05-22T02:38:56.566Z,15.07
2023-05-22T02:41:24.646Z,15.03
2023-05-22T02:43:52.800Z,15.07
2023-05-22T02:46:21.039Z,15.10
2023-05-22T02:48:50.722Z,15.06
2023-05-22T02:51:18.856Z,15.14
2023-05-22T02:53:47.311Z,15.30
2023-05-22T02:56:16.458Z,15.31
2023-05-22T02:58:44.588Z,15.27
2023-05-22T03:01:13.225Z,15.25
2023-05-22T03:03:41.630Z,15.24
2023-05-22T03:06:11.178Z,15.22
2023-05-22T03:08:43.582Z,15.20
2023-05-22T03:11:11.936Z,15.33
2023-05-22T03:13:40.871Z,15.39
2023-05-22T03:16:09.217Z,15.31
2023-05-22T03:18:37.558Z,15.28
2023-05-22T03:21:06.694Z,15.28
2023-05-22T03:23:36.243Z,15.24
2023-05-22T03:26:04.553Z,15.21
2023-05-22T03:28:32.781Z,15.35
2023-05-22T03:31:01.272Z,15.40
2023-05-22T03:33:29.544Z,15.37
2023-05-22T03:35:57.676Z,15.34
2023-05-22T03:38:26.408Z,15.28
2023-05-22T03:40:55.949Z,15.32
2023-05-22T03:43:24.073Z,15.43
2023-05-22T03:45:52.285Z,15.61
2023-05-22T03:48:20.611Z,15.77
2023-05-22T03:50:48.912Z,15.89
2023-05-22T03:53:17.223Z,15.96
2023-05-22T03:55:45.393Z,15.87
2023-05-22T03:58:15.132Z,15.94
2023-05-22T04:00:43.862Z,15.74
2023-05-22T04:03:13.316Z,15.79
2023-05-22T04:05:41.552Z,15.83
2023-05-22T04:08:09.566Z,15.84
2023-05-22T04:10:39.090Z,15.94
2023-05-22T04:13:07.582Z,15.92
2023-05-22T04:15:37.032Z,15.87
2023-05-22T04:18:05.365Z,15.93
2023-05-22T04:20:33.512Z,16.19
2023-05-22T04:23:02.525Z,16.18
2023-05-22T04:25:31.743Z,16.15
2023-05-22T04:28:03.220Z,16.20
2023-05-22T04:30:34.231Z,16.28
2023-05-22T04:33:05.736Z,16.49
2023-05-22T04:35:34.365Z,16.62
2023-05-22T04:38:03.820Z,16.57
2023-05-22T04:40:33.791Z,16.54
2023-05-22T04:43:03.687Z,16.65
2023-05-22T04:45:35.652Z,16.61
2023-05-22T04:48:05.864Z,16.68
2023-05-22T04:50:34.464Z,16.69
2023-05-22T04:53:04.503Z,16.71
2023-05-22T04:55:34.213Z,16.73
2023-05-22T04:58:02.982Z,16.59
2023-05-22T05:00:31.338Z,16.73
2023-05-22T05:03:00.536Z,17.05
2023-05-22T05:05:30.620Z,17.20
2023-05-22T05:07:59.375Z,17.35
2023-05-22T05:10:28.029Z,17.37
2023-05-22T05:12:56.846Z,17.27
2023-05-22T05:15:25.272Z,17.17
2023-05-22T05:17:54.218Z,17.17
2023-05-22T05:20:23.332Z,17.13
2023-05-22T05:22:53.544Z,17.22
2023-05-22T05:25:22.041Z,17.21
2023-05-22T05:27:50.874Z,17.27
2023-05-22T05:30:20.648Z,17.35
2023-05-22T05:32:49.138Z,17.54
2023-05-22T05:35:17.466Z,17.63
2023-05-22T05:37:45.899Z,17.79
2023-05-22T05:40:16.346Z,17.81
2023-05-22T05:42:46.516Z,17.76
2023-05-22T05:45:16.654Z,17.80
2023-05-22T05:47:46.074Z,17.73
2023-05-22T05:50:15.764Z,17.61
2023-05-22T05:52:44.078Z,17.43
2023-05-22T05:55:12.296Z,17.29
2023-05-22T05:57:42.204Z,17.37
2023-05-22T06:00:12.166Z,17.47
2023-05-22T06:02:40.678Z,17.51
2023-05-22T06:05:10.108Z,17.69
2023-05-22T06:07:39.864Z,17.95
2023-05-22T06:10:09.554Z,18.09
2023-05-22T06:12:37.861Z,18.23
2023-05-22T06:15:08.726Z,18.33
2023-05-22T06:17:37.355Z,18.49
2023-05-22T06:20:07.175Z,18.76
2023-05-22T06:22:37.118Z,19.03
2023-05-22T06:25:06.531Z,19.12
2023-05-22T06:27:34.929Z,19.41
2023-05-22T06:30:04.724Z,19.43
2023-05-22T06:32:35.346Z,19.44
2023-05-22T06:35:04.220Z,19.50
2023-05-22T06:37:35.679Z,19.51
2023-05-22T06:40:04.462Z,19.50
2023-05-22T06:42:32.828Z,19.49
2023-05-22T06:45:01.280Z,19.57
2023-05-22T06:47:29.685Z,19.70
2023-05-22T06:49:59.861Z,20.01
2023-05-22T06:52:28.108Z,20.33
2023-05-22T06:55:04.330Z,20.49
2023-05-22T06:57:33.417Z,20.62
2023-05-22T07:00:02.239Z,20.66
2023-05-22T07:02:30.756Z,20.66
2023-05-22T07:05:00.601Z,20.53
2023-05-22T07:07:28.759Z,20.65
2023-05-22T07:09:56.991Z,20.63
2023-05-22T07:12:26.319Z,20.54
2023-05-22T07:14:54.834Z,20.60
2023-05-22T07:17:23.238Z,20.73
2023-05-22T07:19:51.591Z,21.07
2023-05-22T07:22:21.652Z,21.30
2023-05-22T07:24:50.774Z,21.78
2023-05-22T07:27:18.886Z,22.08
2023-05-22T07:29:47.102Z,21.97
2023-05-22T07:32:15.520Z,22.26
2023-05-22T07:34:44.463Z,22.45
2023-05-22T07:37:14.290Z,22.61
2023-05-22T07:39:43.972Z,22.91
2023-05-22T07:42:14.796Z,23.21
2023-05-22T07:44:43.199Z,23.62
2023-05-22T07:47:11.596Z,23.75
2023-05-22T07:49:40.000Z,23.80
2023-05-22T07:52:08.668Z,24.03
2023-05-22T07:54:37.107Z,23.60
2023-05-22T07:57:08.282Z,23.63
2023-05-22T07:59:37.831Z,23.72
2023-05-22T08:02:06.387Z,23.76
2023-05-22T08:04:35.650Z,23.89
2023-05-22T08:07:04.324Z,24.20
2023-05-22T08:09:32.943Z,24.39
2023-05-22T08:12:01.757Z,24.45
2023-05-22T08:14:31.822Z,24.06
2023-05-22T08:17:00.555Z,23.94
2023-05-22T08:19:29.212Z,23.50
2023-05-22T08:21:58.608Z,23.55
2023-05-22T08:24:28.898Z,23.64
2023-05-22T08:26:58.276Z,23.52
2023-05-22T08:29:26.782Z,23.47
2023-05-22T08:31:58.406Z,23.51
2023-05-22T08:34:28.499Z,23.55
2023-05-22T08:36:56.794Z,23.63
2023-05-22T08:39:28.480Z,23.64
2023-05-22T08:41:57.514Z,23.82
2023-05-22T08:44:26.293Z,23.94
2023-05-22T08:46:59.954Z,24.06
2023-05-22T08:49:28.753Z,24.26
2023-05-22T08:52:07.074Z,24.25
2023-05-22T08:54:41.159Z,23.48
2023-05-22T08:57:10.240Z,23.35
2023-05-22T08:59:40.360Z,23.51
2023-05-22T09:02:11.573Z,23.91
2023-05-22T09:04:42.137Z,24.32
2023-05-22T09:07:10.927Z,24.66
2023-05-22T09:09:40.052Z,24.76
2023-05-22T09:12:10.531Z,24.09
2023-05-22T09:14:42.494Z,24.17
2023-05-22T09:17:16.702Z,24.02
2023-05-22T09:19:47.502Z,23.65
2023-05-22T09:22:16.848Z,23.62
2023-05-22T09:24:47.293Z,23.41
2023-05-22T09:27:15.583Z,23.44
2023-05-22T09:29:50.753Z,23.99
2023-05-22T09:32:21.116Z,24.41
2023-05-22T09:34:49.931Z,25.06
2023-05-22T09:37:19.258Z,25.22
2023-05-22T09:39:51.605Z,25.28
2023-05-22T09:42:19.943Z,25.03
2023-05-22T09:44:50.315Z,25.23
2023-05-22T09:47:20.020Z,25.41
2023-05-22T09:49:48.913Z,25.80
2023-05-22T09:52:19.359Z,26.06
2023-05-22T09:54:55.051Z,26.41
2023-05-22T09:57:25.056Z,26.43
2023-05-22T09:59:58.422Z,26.32
2023-05-22T10:02:29.687Z,26.47
2023-05-22T10:04:59.241Z,26.60
2023-05-22T10:07:34.326Z,26.53
2023-05-22T10:10:06.598Z,26.34
2023-05-22T10:12:38.673Z,26.20
2023-05-22T10:15:09.713Z,26.12
2023-05-22T10:17:41.575Z,26.12
2023-05-22T10:20:11.233Z,26.12
2023-05-22T10:22:40.844Z,25.94
2023-05-22T10:25:11.067Z,25.93
2023-05-22T10:27:40.733Z,25.90
2023-05-22T10:30:20.368Z,25.94
2023-05-22T10:32:57.631Z,26.06
2023-05-22T10:35:33.807Z,26.03
2023-05-22T10:38:15.775Z,25.73
2023-05-22T10:40:48.487Z,25.81
2023-05-22T10:43:17.133Z,25.52
2023-05-22T10:45:48.455Z,25.17
2023-05-22T10:48:23.043Z,25.13
2023-05-22T10:50:55.078Z,25.21
2023-05-22T10:53:28.095Z,25.30
2023-05-22T10:55:57.539Z,25.49
2023-05-22T10:58:29.825Z,25.50
2023-05-22T11:01:11.139Z,25.56
2023-05-22T11:03:58.497Z,25.68
2023-05-22T11:06:38.798Z,25.46
2023-05-22T11:09:21.984Z,25.65
2023-05-22T11:12:20.989Z,26.05
2023-05-22T11:14:57.521Z,26.55
2023-05-22T11:17:29.206Z,26.84
2023-05-22T11:20:05.577Z,27.16
2023-05-22T11:22:38.664Z,27.33
2023-05-22T11:25:12.353Z,26.48
2023-05-22T11:27:42.768Z,26.05
2023-05-22T11:30:12.767Z,26.34
2023-05-22T11:32:44.672Z,25.75
2023-05-22T11:35:17.679Z,24.82
2023-05-22T11:37:46.757Z,24.62
2023-05-22T11:40:17.151Z,24.39
2023-05-22T11:42:45.834Z,24.21
2023-05-22T11:45:16.221Z,23.84
2023-05-22T11:47:45.206Z,22.56
2023-05-22T11:50:17.990Z,21.60
2023-05-22T11:52:56.449Z,21.07
2023-05-22T11:55:25.601Z,21.04
2023-05-22T11:57:57.539Z,20.63
2023-05-22T12:00:26.727Z,19.55
2023-05-22T12:02:56.307Z,18.40
2023-05-22T12:05:24.711Z,17.75
2023-05-22T12:07:54.874Z,17.45
2023-05-22T12:10:23.797Z,17.34
2023-05-22T12:12:52.782Z,17.40
2023-05-22T12:15:21.523Z,17.46
2023-05-22T12:17:49.993Z,17.67
2023-05-22T12:20:20.798Z,17.90
2023-05-22T12:22:51.678Z,17.99
2023-05-22T12:25:24.587Z,18.07
2023-05-22T12:27:52.962Z,18.15
2023-05-22T12:30:23.853Z,18.37
2023-05-22T12:32:53.310Z,18.56
2023-05-22T12:35:21.767Z,18.67
2023-05-22T12:37:50.602Z,18.74
2023-05-22T12:40:20.621Z,18.89
2023-05-22T12:42:52.420Z,18.84
2023-05-22T12:45:21.214Z,19.05
2023-05-22T12:47:52.572Z,19.21
2023-05-22T12:50:38.991Z,19.15
2023-05-22T12:53:07.437Z,19.25
2023-05-22T12:55:38.081Z,19.23
2023-05-22T12:58:06.399Z,19.22
2023-05-22T13:00:35.415Z,19.28
2023-05-22T13:03:04.458Z,19.46
2023-05-22T13:05:33.152Z,19.70
2023-05-22T13:08:01.713Z,19.77
2023-05-22T13:10:30.740Z,19.88
2023-05-22T13:13:00.690Z,20.03
2023-05-22T13:15:36.722Z,20.20
2023-05-22T13:18:05.474Z,20.43
2023-05-22T13:20:36.159Z,20.35
2023-05-22T13:23:04.627Z,20.27
2023-05-22T13:25:33.198Z,20.32
2023-05-22T13:28:03.069Z,20.33
2023-05-22T13:30:32.307Z,20.46
2023-05-22T13:33:00.847Z,20.76
2023-05-22T13:35:29.221Z,20.99
2023-05-22T13:37:57.638Z,21.01
2023-05-22T13:40:28.590Z,21.20
2023-05-22T13:42:57.050Z,21.19
2023-05-22T13:45:27.890Z,21.07
2023-05-22T13:47:58.982Z,20.93
2023-05-22T13:50:30.800Z,21.02
2023-05-22T13:52:59.537Z,20.91
2023-05-22T13:55:31.118Z,20.79
2023-05-22T13:57:59.675Z,20.82
2023-05-22T14:00:29.602Z,20.87
2023-05-22T14:02:58.212Z,21.04
2023-05-22T14:05:32.303Z,21.25
2023-05-22T14:08:00.755Z,21.35
2023-05-22T14:10:29.361Z,21.43
2023-05-22T14:12:57.611Z,21.40
2023-05-22T14:15:26.866Z,21.39
2023-05-22T14:17:56.679Z,21.48
2023-05-22T14:20:25.330Z,21.48
2023-05-22T14:22:58.252Z,21.68
2023-05-22T14:25:29.417Z,21.83
2023-05-22T14:27:58.771Z,22.13
2023-05-22T14:30:27.355Z,22.58
2023-05-22T14:32:57.120Z,22.65
2023-05-22T14:35:25.683Z,22.93
2023-05-22T14:37:57.629Z,22.85
2023-05-22T14:40:25.875Z,22.92
2023-05-22T14:42:54.605Z,22.79
2023-05-22T14:45:22.916Z,22.54
2023-05-22T14:47:51.229Z,22.71
2023-05-22T14:50:21.907Z,22.78
2023-05-22T14:52:50.826Z,22.81
2023-05-22T14:55:19.562Z,22.78
2023-05-22T14:57:47.714Z,22.74
2023-05-22T15:00:16.585Z,22.53
2023-05-22T15:02:44.825Z,21.92
2023-05-22T15:05:13.221Z,21.58
2023-05-22T15:07:45.525Z,21.55
2023-05-22T15:10:14.913Z,21.43
2023-05-22T15:12:42.997Z,21.47
2023-05-22T15:15:12.481Z,21.50
2023-05-22T15:17:42.582Z,21.73
2023-05-22T15:20:12.150Z,21.59
2023-05-22T15:22:40.645Z,21.72
2023-05-22T15:25:15.084Z,21.78
2023-05-22T15:27:43.626Z,21.70
2023-05-22T15:30:17.028Z,21.60
2023-05-22T15:32:45.440Z,21.45
2023-05-22T15:35:15.052Z,21.14
2023-05-22T15:37:43.341Z,20.78
2023-05-22T15:40:17.413Z,20.62
2023-05-22T15:42:45.645Z,20.54
2023-05-22T15:45:14.143Z,20.69
2023-05-22T15:47:42.805Z,20.62
2023-05-22T15:50:11.576Z,20.57
2023-05-22T15:52:39.780Z,20.41
2023-05-22T15:55:08.779Z,20.33
2023-05-22T15:57:38.732Z,20.13
2023-05-22T16:00:08.665Z,20.13
2023-05-22T16:02:37.141Z,20.22
2023-05-22T16:05:06.281Z,20.33
2023-05-22T16:07:34.746Z,20.42
2023-05-22T16:10:04.119Z,20.24
2023-05-22T16:12:32.789Z,20.21
2023-05-22T16:15:04.518Z,20.34
2023-05-22T16:17:34.988Z,20.29
2023-05-22T16:20:05.154Z,20.40
2023-05-22T16:22:47.368Z,20.53
2023-05-22T16:25:19.268Z,20.41
2023-05-22T16:27:47.821Z,20.48
2023-05-22T16:30:18.247Z,20.35
2023-05-22T16:32:47.210Z,20.27
2023-05-22T16:35:16.031Z,20.14
2023-05-22T16:37:44.283Z,20.02
2023-05-22T16:40:14.802Z,19.90
2023-05-22T16:42:43.117Z,19.89
2023-05-22T16:45:11.479Z,19.88
2023-05-22T16:47:41.107Z,19.81
2023-05-22T16:50:10.285Z,19.75
2023-05-22T16:52:38.389Z,19.56
2023-05-22T16:55:07.483Z,19.57
2023-05-22T16:57:35.663Z,19.27
2023-05-22T17:00:05.166Z,18.95
2023-05-22T17:02:33.538Z,18.86
2023-05-22T17:05:03.278Z,18.79
2023-05-22T17:07:31.826Z,18.70
2023-05-22T17:10:00.309Z,18.64
2023-05-22T17:12:28.928Z,18.53
2023-05-22T17:14:57.097Z,18.34
2023-05-22T17:17:25.258Z,18.18
2023-05-22T17:19:54.400Z,18.06
2023-05-22T17:22:24.040Z,18.02
2023-05-22T17:24:52.783Z,18.02
2023-05-22T17:27:34.343Z,18.06
2023-05-22T17:30:03.617Z,18.05
2023-05-22T17:32:31.817Z,18.05
2023-05-22T17:35:00.170Z,18.03
2023-05-22T17:37:29.674Z,18.00
2023-05-22T17:39:57.903Z,17.75
2023-05-22T17:42:25.950Z,17.67
2023-05-22T17:44:54.002Z,17.56
2023-05-22T17:47:22.406Z,17.75
2023-05-22T17:49:50.689Z,17.61
2023-05-22T17:52:18.868Z,17.63
2023-05-22T17:54:50.368Z,17.76
2023-05-22T17:57:18.592Z,17.75
2023-05-22T17:59:46.806Z,17.74
2023-05-22T18:02:15.050Z,17.64
2023-05-22T18:04:43.085Z,17.60
2023-05-22T18:07:11.204Z,17.52
2023-05-22T18:09:39.305Z,17.44
2023-05-22T18:12:15.156Z,17.35
2023-05-22T18:14:52.595Z,17.40
2023-05-22T18:17:21.027Z,17.39
2023-05-22T18:19:49.278Z,17.48
2023-05-22T18:22:17.406Z,17.44
2023-05-22T18:24:45.949Z,17.51
2023-05-22T18:27:15.414Z,17.52
2023-05-22T18:29:43.463Z,17.52
2023-05-22T18:32:13.657Z,17.48
2023-05-22T18:34:42.165Z,17.45
2023-05-22T18:37:10.995Z,17.37
2023-05-22T18:39:39.083Z,17.34
2023-05-22T18:42:07.718Z,17.28
2023-05-22T18:44:37.739Z,17.23
2023-05-22T18:47:06.325Z,17.16
2023-05-22T18:49:34.726Z,17.27
2023-05-22T18:52:02.982Z,17.15
2023-05-22T18:54:31.067Z,17.14
2023-05-22T18:56:59.254Z,17.02
2023-05-22T18:59:27.518Z,16.89
2023-05-22T19:01:57.041Z,17.02
2023-05-22T19:04:26.011Z,16.99
2023-05-22T19:06:54.406Z,16.99
2023-05-22T19:09:22.689Z,16.97
2023-05-22T19:11:51.307Z,16.99
2023-05-22T19:14:19.504Z,16.98
2023-05-22T19:16:47.943Z,16.97
2023-05-22T19:19:17.890Z,16.95
2023-05-22T19:21:46.168Z,17.02
2023-05-22T19:24:14.782Z,16.98
2023-05-22T19:26:58.358Z,16.95
2023-05-22T19:29:26.564Z,16.90
2023-05-22T19:31:55.233Z,16.90
2023-05-22T19:34:24.948Z,16.89
2023-05-22T19:36:57.614Z,16.92
2023-05-22T19:39:26.263Z,16.91
2023-05-22T19:41:54.921Z,16.87
2023-05-22T19:44:23.554Z,16.90
2023-05-22T19:46:51.941Z,16.88
2023-05-22T19:49:21.073Z,16.90
2023-05-22T19:54:37.215Z,16.92
2023-05-22T19:57:05.727Z,16.85
2023-05-22T19:59:36.540Z,16.78
2023-05-22T20:02:06.491Z,16.80
2023-05-22T20:04:34.899Z,16.80
2023-05-22T20:07:05.814Z,16.76
2023-05-22T20:09:34.101Z,16.70
2023-05-22T20:12:02.282Z,16.59
2023-05-22T20:14:30.707Z,16.44
2023-05-22T20:16:59.646Z,16.28
2023-05-22T20:19:32.724Z,16.09
2023-05-22T20:22:02.188Z,16.01
2023-05-22T20:24:32.261Z,15.91
2023-05-22T20:27:01.224Z,15.80
2023-05-22T20:29:29.547Z,15.74
2023-05-22T20:31:57.960Z,15.72
2023-05-22T20:34:28.597Z,15.67
2023-05-22T20:36:58.561Z,15.66
2023-05-22T20:39:30.554Z,15.60
2023-05-22T20:42:03.034Z,15.65
2023-05-22T20:44:31.871Z,15.61
2023-05-22T20:47:00.945Z,15.59
2023-05-22T20:49:30.082Z,15.51
2023-05-22T20:52:00.086Z,15.57
2023-05-22T20:54:28.900Z,15.62
2023-05-22T20:56:57.480Z,15.68
2023-05-22T20:59:28.676Z,15.67
2023-05-22T21:01:58.017Z,15.66
2023-05-22T21:04:27.070Z,15.74
2023-05-22T21:06:55.281Z,15.82
2023-05-22T21:09:23.470Z,15.79
2023-05-22T21:11:51.611Z,15.81
2023-05-22T21:14:19.746Z,15.83
2023-05-22T21:16:49.294Z,15.79
2023-05-22T21:19:17.510Z,15.88
2023-05-22T21:21:45.976Z,15.82
2023-05-22T21:24:14.365Z,15.82
2023-05-22T21:26:42.524Z,15.83
2023-05-22T21:29:10.718Z,15.81
2023-05-22T21:31:38.858Z,15.80
2023-05-22T21:34:09.829Z,15.82
2023-05-22T21:36:38.122Z,15.83
2023-05-22T21:39:06.469Z,15.82
2023-05-22T21:41:34.863Z,15.77
2023-05-22T21:44:08.828Z,15.76
2023-05-22T21:46:37.359Z,15.67
2023-05-22T21:49:06.278Z,15.61
2023-05-22T21:51:36.067Z,15.61
2023-05-22T21:54:04.510Z,15.54
2023-05-22T21:56:32.768Z,15.52
2023-05-22T21:59:00.993Z,15.42
2023-05-22T22:01:29.176Z,15.36
2023-05-22T22:03:57.370Z,15.31
2023-05-22T22:06:25.755Z,15.32
2023-05-22T22:08:56.032Z,15.31
2023-05-22T22:11:24.330Z,15.38
2023-05-22T22:13:52.807Z,15.42
2023-05-22T22:16:22.378Z,15.38
2023-05-22T22:18:51.248Z,15.32
2023-05-22T22:21:19.930Z,15.27
2023-05-22T22:23:48.295Z,15.22
2023-05-22T22:26:18.004Z,15.22
2023-05-22T22:28:46.376Z,15.20
2023-05-22T22:31:14.573Z,15.16
2023-05-22T22:33:42.929Z,15.13
2023-05-22T22:36:11.188Z,15.06
2023-05-22T22:38:39.451Z,14.97
2023-05-22T22:41:09.828Z,14.92
2023-05-22T22:43:39.512Z,14.90
2023-05-22T22:46:08.830Z,14.90
2023-05-22T22:48:37.183Z,14.82
2023-05-22T22:51:06.216Z,14.85
2023-05-22T22:53:34.525Z,14.88
2023-05-22T22:56:03.015Z,14.82
2023-05-22T22:58:31.547Z,14.89
2023-05-22T23:01:01.716Z,14.88
2023-05-22T23:03:29.902Z,14.82
2023-05-22T23:05:58.391Z,14.77
2023-05-22T23:08:27.232Z,14.76
2023-05-22T23:10:55.504Z,14.73
2023-05-22T23:13:23.963Z,14.72
2023-05-22T23:15:52.256Z,14.68
2023-05-22T23:18:22.411Z,14.60
2023-05-22T23:20:51.390Z,14.56
2023-05-22T23:23:20.205Z,14.53
2023-05-22T23:25:48.337Z,14.42
2023-05-22T23:28:16.971Z,14.36
2023-05-22T23:30:45.085Z,14.40
2023-05-22T23:33:14.194Z,14.43
2023-05-22T23:35:43.745Z,14.36
2023-05-22T23:38:11.885Z,14.32
2023-05-22T23:40:40.134Z,14.28
2023-05-22T23:43:08.332Z,14.25
2023-05-22T23:45:36.488Z,14.24
2023-05-22T23:48:05.545Z,14.26
2023-05-22T23:50:34.011Z,14.29
2023-05-22T23:53:04.085Z,14.23
2023-05-22T23:55:32.376Z,14.22
2023-05-22T23:58:00.683Z,14.20
